Main page
Satellite images 15-day forecastsClimateMarine weather Cyclones Lightning AirportsFAQ Newsletter About
Weather : Europe Africa North America South America Asia Australia-Oceania Others
Languages Contact

Podgorica, Montenegro

latitude: 42-26N, longitude: 019-17E, elevation: 53 m


METAR: LYPG 232130Z 34003KT 7000 NSC 05/04 Q1025 NOSIG
TAF: LYPG 231700Z 2318/2418 36005KT CAVOK TX17/2413Z TN02/2406Z

Time: 22:56 (21:56 UTC)

Current weather observation

The report was made 26 minutes ago, at 21:30 UTC
Wind 3 kt from the North/Northwest
Temperature 5°C
Humidity 93%
Pressure 1025 hPa
Visibility: 7000 m

Change units

Forecast

The report was made 4 hours and 56 minutes ago, at 17:00 UTC
Forecast valid from 23 at 18 UTC to 24 at 18 UTC
Wind 5 kt from the North
Visibility 10 km or more
no clouds below 1500 m and no cumulonimbus
The information on this site is subject to a disclaimer
Weather : Europe Africa North America South America Asia Australia-Oceania Others
Satellite images 15-day forecastsClimateMarine weather Cyclones Lightning AirportsFAQ Languages Contact Newsletter About